sensor_id;sensor_type;location;lat;lon;timestamp;P1;durP1;ratioP1;P2;durP2;ratioP2
26335;SDS011;14047;50.936;4.654;2022-11-15T00:01:35;36.70;;;18.08;;
26335;SDS011;14047;50.936;4.654;2022-11-15T00:04:04;33.42;;;17.48;;
26335;SDS011;14047;50.936;4.654;2022-11-15T00:06:30;32.53;;;18.85;;
26335;SDS011;14047;50.936;4.654;2022-11-15T00:08:59;32.75;;;19.00;;
26335;SDS011;14047;50.936;4.654;2022-11-15T00:11:26;31.13;;;18.17;;
26335;SDS011;14047;50.936;4.654;2022-11-15T00:13:55;34.08;;;17.48;;
26335;SDS011;14047;50.936;4.654;2022-11-15T00:16:21;30.08;;;18.27;;
26335;SDS011;14047;50.936;4.654;2022-11-15T00:18:47;28.65;;;18.80;;
26335;SDS011;14047;50.936;4.654;2022-11-15T00:21:13;28.95;;;17.38;;
26335;SDS011;14047;50.936;4.654;2022-11-15T00:23:40;31.00;;;18.27;;
26335;SDS011;14047;50.936;4.654;2022-11-15T00:26:05;30.83;;;17.85;;
26335;SDS011;14047;50.936;4.654;2022-11-15T00:28:31;30.13;;;17.70;;
26335;SDS011;14047;50.936;4.654;2022-11-15T00:31:00;29.73;;;17.25;;
26335;SDS011;14047;50.936;4.654;2022-11-15T00:33:27;34.95;;;18.60;;
26335;SDS011;14047;50.936;4.654;2022-11-15T00:35:53;31.40;;;17.15;;
26335;SDS011;14047;50.936;4.654;2022-11-15T00:38:23;30.40;;;17.58;;
26335;SDS011;14047;50.936;4.654;2022-11-15T00:40:49;37.22;;;18.77;;
26335;SDS011;14047;50.936;4.654;2022-11-15T00:43:14;33.17;;;17.85;;
26335;SDS011;14047;50.936;4.654;2022-11-15T00:45:40;30.38;;;18.25;;
26335;SDS011;14047;50.936;4.654;2022-11-15T00:48:06;30.13;;;17.60;;
26335;SDS011;14047;50.936;4.654;2022-11-15T00:50:32;30.10;;;18.27;;
26335;SDS011;14047;50.936;4.654;2022-11-15T00:52:58;32.05;;;18.02;;
26335;SDS011;14047;50.936;4.654;2022-11-15T00:55:23;25.42;;;16.73;;
26335;SDS011;14047;50.936;4.654;2022-11-15T00:57:49;28.45;;;16.92;;
26335;SDS011;14047;50.936;4.654;2022-11-15T01:00:14;33.58;;;18.98;;
26335;SDS011;14047;50.936;4.654;2022-11-15T01:02:40;34.28;;;18.33;;
26335;SDS011;14047;50.936;4.654;2022-11-15T01:05:06;25.60;;;17.50;;
26335;SDS011;14047;50.936;4.654;2022-11-15T01:07:32;34.88;;;18.20;;
26335;SDS011;14047;50.936;4.654;2022-11-15T01:09:58;30.70;;;18.20;;
26335;SDS011;14047;50.936;4.654;2022-11-15T01:12:24;32.03;;;18.40;;
26335;SDS011;14047;50.936;4.654;2022-11-15T01:14:49;28.52;;;17.98;;
26335;SDS011;14047;50.936;4.654;2022-11-15T01:17:15;32.20;;;19.48;;
26335;SDS011;14047;50.936;4.654;2022-11-15T01:19:40;31.75;;;19.17;;
26335;SDS011;14047;50.936;4.654;2022-11-15T01:22:06;33.90;;;18.40;;
26335;SDS011;14047;50.936;4.654;2022-11-15T01:24:32;28.88;;;17.88;;
26335;SDS011;14047;50.936;4.654;2022-11-15T01:26:57;26.75;;;17.85;;
26335;SDS011;14047;50.936;4.654;2022-11-15T01:29:23;36.03;;;18.67;;
26335;SDS011;14047;50.936;4.654;2022-11-15T01:31:49;30.85;;;17.40;;
26335;SDS011;14047;50.936;4.654;2022-11-15T01:34:14;32.45;;;17.88;;
26335;SDS011;14047;50.936;4.654;2022-11-15T01:36:40;24.77;;;17.35;;
26335;SDS011;14047;50.936;4.654;2022-11-15T01:39:05;34.40;;;18.13;;
26335;SDS011;14047;50.936;4.654;2022-11-15T01:41:32;33.92;;;17.90;;
26335;SDS011;14047;50.936;4.654;2022-11-15T01:47:06;31.55;;;17.67;;
26335;SDS011;14047;50.936;4.654;2022-11-15T01:49:41;32.72;;;18.23;;
26335;SDS011;14047;50.936;4.654;2022-11-15T01:52:18;29.30;;;18.15;;
26335;SDS011;14047;50.936;4.654;2022-11-15T01:54:46;29.23;;;19.10;;
26335;SDS011;14047;50.936;4.654;2022-11-15T01:57:19;34.25;;;20.08;;
26335;SDS011;14047;50.936;4.654;2022-11-15T01:59:45;33.60;;;19.40;;
26335;SDS011;14047;50.936;4.654;2022-11-15T02:02:11;35.97;;;20.80;;
26335;SDS011;14047;50.936;4.654;2022-11-15T02:04:43;44.78;;;20.95;;
26335;SDS011;14047;50.936;4.654;2022-11-15T02:07:11;33.50;;;21.55;;
26335;SDS011;14047;50.936;4.654;2022-11-15T02:09:41;34.85;;;20.70;;
26335;SDS011;14047;50.936;4.654;2022-11-15T02:12:07;35.22;;;20.23;;
26335;SDS011;14047;50.936;4.654;2022-11-15T02:14:36;39.97;;;20.77;;
26335;SDS011;14047;50.936;4.654;2022-11-15T02:22:22;41.53;;;19.83;;
26335;SDS011;14047;50.936;4.654;2022-11-15T02:33:03;30.00;;;18.30;;
26335;SDS011;14047;50.936;4.654;2022-11-15T02:35:45;30.90;;;18.60;;
26335;SDS011;14047;50.936;4.654;2022-11-15T02:38:25;26.60;;;17.50;;
26335;SDS011;14047;50.936;4.654;2022-11-15T02:41:13;27.42;;;17.27;;
26335;SDS011;14047;50.936;4.654;2022-11-15T02:44:04;29.08;;;17.27;;
26335;SDS011;14047;50.936;4.654;2022-11-15T02:46:41;27.58;;;16.30;;
26335;SDS011;14047;50.936;4.654;2022-11-15T02:49:29;28.10;;;15.88;;
26335;SDS011;14047;50.936;4.654;2022-11-15T02:51:57;31.73;;;15.07;;
26335;SDS011;14047;50.936;4.654;2022-11-15T02:54:28;26.60;;;16.75;;
26335;SDS011;14047;50.936;4.654;2022-11-15T02:57:01;29.88;;;17.00;;
26335;SDS011;14047;50.936;4.654;2022-11-15T03:05:04;32.13;;;18.02;;
26335;SDS011;14047;50.936;4.654;2022-11-15T03:07:49;31.23;;;17.80;;
26335;SDS011;14047;50.936;4.654;2022-11-15T03:10:36;28.58;;;18.30;;
26335;SDS011;14047;50.936;4.654;2022-11-15T03:16:03;35.47;;;17.58;;
26335;SDS011;14047;50.936;4.654;2022-11-15T03:18:34;30.20;;;18.27;;
26335;SDS011;14047;50.936;4.654;2022-11-15T03:21:07;34.25;;;19.15;;
26335;SDS011;14047;50.936;4.654;2022-11-15T03:23:36;33.00;;;19.58;;
26335;SDS011;14047;50.936;4.654;2022-11-15T03:26:03;28.88;;;19.55;;
26335;SDS011;14047;50.936;4.654;2022-11-15T03:28:54;29.67;;;18.38;;
26335;SDS011;14047;50.936;4.654;2022-11-15T03:31:21;31.63;;;18.13;;
26335;SDS011;14047;50.936;4.654;2022-11-15T03:34:10;37.45;;;19.17;;
26335;SDS011;14047;50.936;4.654;2022-11-15T03:36:53;35.00;;;19.38;;
26335;SDS011;14047;50.936;4.654;2022-11-15T03:39:19;27.77;;;17.80;;
26335;SDS011;14047;50.936;4.654;2022-11-15T03:47:06;33.22;;;18.33;;
26335;SDS011;14047;50.936;4.654;2022-11-15T03:49:46;26.95;;;17.02;;
26335;SDS011;14047;50.936;4.654;2022-11-15T03:52:20;25.33;;;16.92;;
26335;SDS011;14047;50.936;4.654;2022-11-15T03:54:47;25.42;;;17.10;;
26335;SDS011;14047;50.936;4.654;2022-11-15T03:57:18;26.58;;;16.90;;
26335;SDS011;14047;50.936;4.654;2022-11-15T03:59:43;28.20;;;17.67;;
26335;SDS011;14047;50.936;4.654;2022-11-15T04:02:09;27.30;;;16.10;;
26335;SDS011;14047;50.936;4.654;2022-11-15T04:04:35;25.05;;;15.95;;
26335;SDS011;14047;50.936;4.654;2022-11-15T04:07:00;27.88;;;16.58;;
26335;SDS011;14047;50.936;4.654;2022-11-15T04:09:26;27.23;;;14.77;;
26335;SDS011;14047;50.936;4.654;2022-11-15T04:11:51;21.60;;;14.80;;
26335;SDS011;14047;50.936;4.654;2022-11-15T04:14:17;19.85;;;13.85;;
26335;SDS011;14047;50.936;4.654;2022-11-15T04:16:42;19.55;;;11.23;;
26335;SDS011;14047;50.936;4.654;2022-11-15T04:19:08;18.85;;;11.52;;
26335;SDS011;14047;50.936;4.654;2022-11-15T04:21:52;17.73;;;11.32;;
26335;SDS011;14047;50.936;4.654;2022-11-15T04:24:36;17.48;;;11.50;;
26335;SDS011;14047;50.936;4.654;2022-11-15T04:27:02;18.25;;;11.00;;
26335;SDS011;14047;50.936;4.654;2022-11-15T04:29:27;18.15;;;10.85;;
26335;SDS011;14047;50.936;4.654;2022-11-15T04:31:59;18.30;;;10.10;;
26335;SDS011;14047;50.936;4.654;2022-11-15T04:34:30;14.73;;;9.00;;
26335;SDS011;14047;50.936;4.654;2022-11-15T04:36:55;17.88;;;9.65;;
26335;SDS011;14047;50.936;4.654;2022-11-15T04:39:37;15.10;;;9.23;;
26335;SDS011;14047;50.936;4.654;2022-11-15T04:42:02;19.23;;;8.82;;
26335;SDS011;14047;50.936;4.654;2022-11-15T04:44:28;14.27;;;8.02;;
26335;SDS011;14047;50.936;4.654;2022-11-15T04:46:54;14.48;;;8.15;;
26335;SDS011;14047;50.936;4.654;2022-11-15T04:49:19;17.38;;;8.38;;
26335;SDS011;14047;50.936;4.654;2022-11-15T04:51:45;13.98;;;7.80;;
26335;SDS011;14047;50.936;4.654;2022-11-15T04:54:11;15.73;;;8.43;;
26335;SDS011;14047;50.936;4.654;2022-11-15T04:56:36;15.63;;;8.73;;
26335;SDS011;14047;50.936;4.654;2022-11-15T04:59:02;16.83;;;9.02;;
26335;SDS011;14047;50.936;4.654;2022-11-15T05:01:27;19.63;;;9.75;;
26335;SDS011;14047;50.936;4.654;2022-11-15T05:03:53;17.60;;;10.15;;
26335;SDS011;14047;50.936;4.654;2022-11-15T05:06:37;23.48;;;10.00;;
26335;SDS011;14047;50.936;4.654;2022-11-15T05:09:03;20.83;;;9.10;;
26335;SDS011;14047;50.936;4.654;2022-11-15T05:11:29;18.73;;;8.73;;
26335;SDS011;14047;50.936;4.654;2022-11-15T05:13:55;17.52;;;8.43;;
26335;SDS011;14047;50.936;4.654;2022-11-15T05:16:20;11.20;;;6.80;;
26335;SDS011;14047;50.936;4.654;2022-11-15T05:18:46;18.42;;;7.75;;
26335;SDS011;14047;50.936;4.654;2022-11-15T05:21:15;19.25;;;7.50;;
26335;SDS011;14047;50.936;4.654;2022-11-15T05:23:41;15.68;;;7.05;;
26335;SDS011;14047;50.936;4.654;2022-11-15T05:26:07;13.93;;;7.50;;
26335;SDS011;14047;50.936;4.654;2022-11-15T05:28:33;13.18;;;6.97;;
26335;SDS011;14047;50.936;4.654;2022-11-15T05:31:00;13.55;;;6.65;;
26335;SDS011;14047;50.936;4.654;2022-11-15T05:33:30;14.15;;;7.45;;
26335;SDS011;14047;50.936;4.654;2022-11-15T05:36:04;16.05;;;6.57;;
26335;SDS011;14047;50.936;4.654;2022-11-15T05:38:46;14.60;;;6.15;;
26335;SDS011;14047;50.936;4.654;2022-11-15T05:41:13;14.45;;;7.53;;
26335;SDS011;14047;50.936;4.654;2022-11-15T05:43:44;17.42;;;7.10;;
26335;SDS011;14047;50.936;4.654;2022-11-15T05:46:12;21.17;;;7.50;;
26335;SDS011;14047;50.936;4.654;2022-11-15T05:48:38;11.98;;;6.45;;
26335;SDS011;14047;50.936;4.654;2022-11-15T05:51:08;14.10;;;7.40;;
26335;SDS011;14047;50.936;4.654;2022-11-15T05:53:34;13.52;;;7.32;;
26335;SDS011;14047;50.936;4.654;2022-11-15T05:56:02;16.13;;;7.20;;
26335;SDS011;14047;50.936;4.654;2022-11-15T05:58:30;12.90;;;7.20;;
26335;SDS011;14047;50.936;4.654;2022-11-15T06:00:57;14.13;;;7.20;;
26335;SDS011;14047;50.936;4.654;2022-11-15T06:03:22;15.82;;;8.45;;
26335;SDS011;14047;50.936;4.654;2022-11-15T06:05:48;17.08;;;8.52;;
26335;SDS011;14047;50.936;4.654;2022-11-15T06:08:13;16.55;;;8.57;;
26335;SDS011;14047;50.936;4.654;2022-11-15T06:10:39;16.63;;;8.93;;
26335;SDS011;14047;50.936;4.654;2022-11-15T06:13:05;17.65;;;9.15;;
26335;SDS011;14047;50.936;4.654;2022-11-15T06:15:31;15.65;;;8.15;;
26335;SDS011;14047;50.936;4.654;2022-11-15T06:17:58;16.83;;;8.35;;
26335;SDS011;14047;50.936;4.654;2022-11-15T06:20:25;15.05;;;8.50;;
26335;SDS011;14047;50.936;4.654;2022-11-15T06:22:58;15.27;;;8.00;;
26335;SDS011;14047;50.936;4.654;2022-11-15T06:25:25;18.60;;;8.25;;
26335;SDS011;14047;50.936;4.654;2022-11-15T06:27:52;19.38;;;9.52;;
26335;SDS011;14047;50.936;4.654;2022-11-15T06:30:19;18.27;;;8.68;;
26335;SDS011;14047;50.936;4.654;2022-11-15T06:32:45;17.98;;;9.25;;
26335;SDS011;14047;50.936;4.654;2022-11-15T06:35:11;17.08;;;9.93;;
26335;SDS011;14047;50.936;4.654;2022-11-15T06:37:36;22.27;;;9.57;;
26335;SDS011;14047;50.936;4.654;2022-11-15T06:40:02;16.88;;;9.85;;
26335;SDS011;14047;50.936;4.654;2022-11-15T06:42:28;15.82;;;9.40;;
26335;SDS011;14047;50.936;4.654;2022-11-15T06:44:53;17.38;;;8.95;;
26335;SDS011;14047;50.936;4.654;2022-11-15T06:47:19;21.60;;;9.52;;
26335;SDS011;14047;50.936;4.654;2022-11-15T06:49:48;14.60;;;9.40;;
26335;SDS011;14047;50.936;4.654;2022-11-15T06:52:13;21.63;;;10.85;;
26335;SDS011;14047;50.936;4.654;2022-11-15T06:54:39;16.70;;;8.50;;
26335;SDS011;14047;50.936;4.654;2022-11-15T06:57:04;20.15;;;9.73;;
26335;SDS011;14047;50.936;4.654;2022-11-15T06:59:31;20.13;;;10.25;;
26335;SDS011;14047;50.936;4.654;2022-11-15T07:01:56;22.48;;;10.07;;
26335;SDS011;14047;50.936;4.654;2022-11-15T07:04:22;21.60;;;9.55;;
26335;SDS011;14047;50.936;4.654;2022-11-15T07:06:47;21.95;;;10.20;;
26335;SDS011;14047;50.936;4.654;2022-11-15T07:09:13;20.83;;;10.63;;
26335;SDS011;14047;50.936;4.654;2022-11-15T07:11:39;23.02;;;10.35;;
26335;SDS011;14047;50.936;4.654;2022-11-15T07:14:04;19.05;;;9.80;;
26335;SDS011;14047;50.936;4.654;2022-11-15T07:16:30;22.15;;;10.65;;
26335;SDS011;14047;50.936;4.654;2022-11-15T07:18:56;27.17;;;10.52;;
26335;SDS011;14047;50.936;4.654;2022-11-15T07:21:23;21.42;;;10.18;;
26335;SDS011;14047;50.936;4.654;2022-11-15T07:23:49;20.48;;;10.48;;
26335;SDS011;14047;50.936;4.654;2022-11-15T07:26:14;18.60;;;9.60;;
26335;SDS011;14047;50.936;4.654;2022-11-15T07:28:40;25.02;;;9.93;;
26335;SDS011;14047;50.936;4.654;2022-11-15T07:31:06;22.70;;;11.27;;
26335;SDS011;14047;50.936;4.654;2022-11-15T07:33:33;24.35;;;9.68;;
26335;SDS011;14047;50.936;4.654;2022-11-15T07:35:59;17.88;;;9.77;;
26335;SDS011;14047;50.936;4.654;2022-11-15T07:38:29;18.85;;;8.90;;
26335;SDS011;14047;50.936;4.654;2022-11-15T07:40:58;18.30;;;8.73;;
26335;SDS011;14047;50.936;4.654;2022-11-15T07:43:26;16.17;;;8.50;;
26335;SDS011;14047;50.936;4.654;2022-11-15T07:45:55;20.50;;;8.98;;
26335;SDS011;14047;50.936;4.654;2022-11-15T07:48:22;15.35;;;8.15;;
26335;SDS011;14047;50.936;4.654;2022-11-15T07:50:47;19.27;;;8.20;;
26335;SDS011;14047;50.936;4.654;2022-11-15T07:53:13;15.50;;;7.75;;
26335;SDS011;14047;50.936;4.654;2022-11-15T07:55:39;16.10;;;7.68;;
26335;SDS011;14047;50.936;4.654;2022-11-15T07:58:07;17.30;;;8.18;;
26335;SDS011;14047;50.936;4.654;2022-11-15T08:00:35;15.00;;;7.13;;
26335;SDS011;14047;50.936;4.654;2022-11-15T08:03:08;13.90;;;6.93;;
26335;SDS011;14047;50.936;4.654;2022-11-15T08:05:38;12.07;;;6.25;;
26335;SDS011;14047;50.936;4.654;2022-11-15T08:08:05;14.40;;;6.50;;
26335;SDS011;14047;50.936;4.654;2022-11-15T08:10:31;9.60;;;5.53;;
26335;SDS011;14047;50.936;4.654;2022-11-15T08:12:58;16.23;;;5.65;;
26335;SDS011;14047;50.936;4.654;2022-11-15T08:15:28;13.10;;;6.07;;
26335;SDS011;14047;50.936;4.654;2022-11-15T08:17:57;8.80;;;4.72;;
26335;SDS011;14047;50.936;4.654;2022-11-15T08:20:25;10.13;;;4.75;;
26335;SDS011;14047;50.936;4.654;2022-11-15T08:22:54;11.65;;;4.57;;
26335;SDS011;14047;50.936;4.654;2022-11-15T08:25:20;9.88;;;4.07;;
26335;SDS011;14047;50.936;4.654;2022-11-15T08:27:46;11.77;;;3.72;;
26335;SDS011;14047;50.936;4.654;2022-11-15T08:30:12;9.38;;;3.70;;
26335;SDS011;14047;50.936;4.654;2022-11-15T08:32:38;11.07;;;4.05;;
26335;SDS011;14047;50.936;4.654;2022-11-15T08:35:04;6.60;;;4.05;;
26335;SDS011;14047;50.936;4.654;2022-11-15T08:37:31;7.28;;;3.35;;
26335;SDS011;14047;50.936;4.654;2022-11-15T08:39:56;7.22;;;3.60;;
26335;SDS011;14047;50.936;4.654;2022-11-15T08:42:22;10.35;;;3.35;;
26335;SDS011;14047;50.936;4.654;2022-11-15T08:44:47;12.88;;;3.38;;
26335;SDS011;14047;50.936;4.654;2022-11-15T08:47:13;9.20;;;2.55;;
26335;SDS011;14047;50.936;4.654;2022-11-15T08:49:39;10.68;;;2.10;;
26335;SDS011;14047;50.936;4.654;2022-11-15T08:52:04;8.90;;;2.03;;
26335;SDS011;14047;50.936;4.654;2022-11-15T08:54:30;4.72;;;1.90;;
26335;SDS011;14047;50.936;4.654;2022-11-15T08:56:56;7.55;;;1.80;;
26335;SDS011;14047;50.936;4.654;2022-11-15T08:59:22;5.00;;;1.90;;
26335;SDS011;14047;50.936;4.654;2022-11-15T09:01:48;7.30;;;1.50;;
26335;SDS011;14047;50.936;4.654;2022-11-15T09:04:13;7.18;;;1.45;;
26335;SDS011;14047;50.936;4.654;2022-11-15T09:06:39;7.63;;;1.80;;
26335;SDS011;14047;50.936;4.654;2022-11-15T09:09:04;5.55;;;1.42;;
26335;SDS011;14047;50.936;4.654;2022-11-15T09:11:30;5.25;;;1.63;;
26335;SDS011;14047;50.936;4.654;2022-11-15T09:13:56;6.80;;;1.60;;
26335;SDS011;14047;50.936;4.654;2022-11-15T09:16:21;8.48;;;2.00;;
26335;SDS011;14047;50.936;4.654;2022-11-15T09:18:47;7.53;;;1.30;;
26335;SDS011;14047;50.936;4.654;2022-11-15T09:21:13;6.70;;;1.60;;
26335;SDS011;14047;50.936;4.654;2022-11-15T09:23:38;6.00;;;1.80;;
26335;SDS011;14047;50.936;4.654;2022-11-15T09:26:04;9.52;;;1.80;;
26335;SDS011;14047;50.936;4.654;2022-11-15T09:28:30;4.32;;;1.33;;
26335;SDS011;14047;50.936;4.654;2022-11-15T09:30:58;5.32;;;1.45;;
26335;SDS011;14047;50.936;4.654;2022-11-15T09:33:24;5.57;;;1.20;;
26335;SDS011;14047;50.936;4.654;2022-11-15T09:35:51;5.05;;;1.30;;
26335;SDS011;14047;50.936;4.654;2022-11-15T09:38:17;10.48;;;1.73;;
26335;SDS011;14047;50.936;4.654;2022-11-15T09:40:43;4.63;;;1.13;;
26335;SDS011;14047;50.936;4.654;2022-11-15T09:56:26;7.35;;;1.23;;
26335;SDS011;14047;50.936;4.654;2022-11-15T09:58:58;8.02;;;2.65;;
26335;SDS011;14047;50.936;4.654;2022-11-15T10:01:56;6.93;;;1.30;;
26335;SDS011;14047;50.936;4.654;2022-11-15T10:04:43;9.88;;;1.52;;
26335;SDS011;14047;50.936;4.654;2022-11-15T10:10:20;9.45;;;1.35;;
26335;SDS011;14047;50.936;4.654;2022-11-15T10:12:52;9.93;;;1.05;;
26335;SDS011;14047;50.936;4.654;2022-11-15T10:15:18;3.78;;;1.05;;
26335;SDS011;14047;50.936;4.654;2022-11-15T10:20:29;8.40;;;1.33;;
26335;SDS011;14047;50.936;4.654;2022-11-15T10:23:01;7.78;;;1.10;;
26335;SDS011;14047;50.936;4.654;2022-11-15T10:25:32;10.43;;;1.60;;
26335;SDS011;14047;50.936;4.654;2022-11-15T10:27:59;5.72;;;1.45;;
26335;SDS011;14047;50.936;4.654;2022-11-15T10:30:36;8.98;;;1.40;;
26335;SDS011;14047;50.936;4.654;2022-11-15T10:35:47;6.78;;;1.00;;
26335;SDS011;14047;50.936;4.654;2022-11-15T10:38:13;5.40;;;0.82;;
26335;SDS011;14047;50.936;4.654;2022-11-15T10:40:39;6.47;;;1.08;;
26335;SDS011;14047;50.936;4.654;2022-11-15T10:45:34;7.43;;;1.27;;
26335;SDS011;14047;50.936;4.654;2022-11-15T10:50:39;6.60;;;1.05;;
26335;SDS011;14047;50.936;4.654;2022-11-15T10:53:49;5.93;;;1.20;;
26335;SDS011;14047;50.936;4.654;2022-11-15T10:55:59;12.32;;;1.48;;
26335;SDS011;14047;50.936;4.654;2022-11-15T10:58:35;3.25;;;0.80;;
26335;SDS011;14047;50.936;4.654;2022-11-15T11:01:22;9.15;;;1.55;;
26335;SDS011;14047;50.936;4.654;2022-11-15T11:04:02;4.00;;;1.10;;
26335;SDS011;14047;50.936;4.654;2022-11-15T11:06:29;6.50;;;1.42;;
26335;SDS011;14047;50.936;4.654;2022-11-15T11:09:18;6.00;;;1.15;;
26335;SDS011;14047;50.936;4.654;2022-11-15T11:11:54;8.30;;;1.55;;
26335;SDS011;14047;50.936;4.654;2022-11-15T11:24:53;6.07;;;0.95;;
26335;SDS011;14047;50.936;4.654;2022-11-15T11:30:15;6.97;;;1.10;;
26335;SDS011;14047;50.936;4.654;2022-11-15T11:43:04;7.90;;;1.25;;
26335;SDS011;14047;50.936;4.654;2022-11-15T11:48:51;6.35;;;1.08;;
26335;SDS011;14047;50.936;4.654;2022-11-15T11:52:15;4.00;;;1.17;;
26335;SDS011;14047;50.936;4.654;2022-11-15T11:54:45;8.48;;;1.00;;
26335;SDS011;14047;50.936;4.654;2022-11-15T12:00:01;7.97;;;1.52;;
26335;SDS011;14047;50.936;4.654;2022-11-15T12:05:44;7.07;;;1.17;;
26335;SDS011;14047;50.936;4.654;2022-11-15T12:08:28;10.68;;;1.13;;
26335;SDS011;14047;50.936;4.654;2022-11-15T12:13:33;6.75;;;1.27;;
26335;SDS011;14047;50.936;4.654;2022-11-15T12:18:37;2.88;;;0.85;;
26335;SDS011;14047;50.936;4.654;2022-11-15T12:23:43;4.50;;;1.10;;
26335;SDS011;14047;50.936;4.654;2022-11-15T12:26:16;4.82;;;1.02;;
26335;SDS011;14047;50.936;4.654;2022-11-15T12:28:59;3.20;;;1.05;;
26335;SDS011;14047;50.936;4.654;2022-11-15T12:34:00;3.90;;;1.00;;
26335;SDS011;14047;50.936;4.654;2022-11-15T12:36:41;4.68;;;1.02;;
26335;SDS011;14047;50.936;4.654;2022-11-15T12:39:09;3.95;;;1.08;;
26335;SDS011;14047;50.936;4.654;2022-11-15T12:41:37;5.63;;;0.98;;
26335;SDS011;14047;50.936;4.654;2022-11-15T12:44:05;4.65;;;1.00;;
26335;SDS011;14047;50.936;4.654;2022-11-15T12:46:59;5.75;;;1.17;;
26335;SDS011;14047;50.936;4.654;2022-11-15T13:02:35;4.75;;;0.85;;
26335;SDS011;14047;50.936;4.654;2022-11-15T13:17:37;4.25;;;0.95;;
26335;SDS011;14047;50.936;4.654;2022-11-15T13:22:43;8.77;;;1.13;;
26335;SDS011;14047;50.936;4.654;2022-11-15T13:30:50;7.30;;;1.08;;
26335;SDS011;14047;50.936;4.654;2022-11-15T13:33:27;1.85;;;0.88;;
26335;SDS011;14047;50.936;4.654;2022-11-15T13:36:00;7.15;;;1.00;;
26335;SDS011;14047;50.936;4.654;2022-11-15T13:41:58;2.75;;;0.85;;
26335;SDS011;14047;50.936;4.654;2022-11-15T13:44:26;2.67;;;0.90;;
26335;SDS011;14047;50.936;4.654;2022-11-15T13:47:06;4.25;;;0.90;;
26335;SDS011;14047;50.936;4.654;2022-11-15T13:49:43;2.58;;;0.82;;
26335;SDS011;14047;50.936;4.654;2022-11-15T13:52:13;4.05;;;1.10;;
26335;SDS011;14047;50.936;4.654;2022-11-15T13:54:50;3.85;;;1.00;;
26335;SDS011;14047;50.936;4.654;2022-11-15T13:57:21;3.20;;;1.00;;
26335;SDS011;14047;50.936;4.654;2022-11-15T13:59:54;3.83;;;1.10;;
26335;SDS011;14047;50.936;4.654;2022-11-15T14:02:33;4.93;;;1.33;;
26335;SDS011;14047;50.936;4.654;2022-11-15T14:05:16;2.50;;;1.50;;
26335;SDS011;14047;50.936;4.654;2022-11-15T14:07:57;5.45;;;1.15;;
26335;SDS011;14047;50.936;4.654;2022-11-15T14:12:56;4.47;;;0.82;;
26335;SDS011;14047;50.936;4.654;2022-11-15T14:15:38;3.58;;;0.95;;
26335;SDS011;14047;50.936;4.654;2022-11-15T14:18:04;3.42;;;0.93;;
26335;SDS011;14047;50.936;4.654;2022-11-15T14:22:59;4.97;;;1.15;;
26335;SDS011;14047;50.936;4.654;2022-11-15T14:25:27;3.58;;;0.90;;
26335;SDS011;14047;50.936;4.654;2022-11-15T14:30:39;2.88;;;1.02;;
26335;SDS011;14047;50.936;4.654;2022-11-15T14:36:04;3.38;;;1.08;;
26335;SDS011;14047;50.936;4.654;2022-11-15T14:38:35;2.42;;;0.90;;
26335;SDS011;14047;50.936;4.654;2022-11-15T14:41:00;2.70;;;1.20;;
26335;SDS011;14047;50.936;4.654;2022-11-15T14:43:26;2.33;;;1.10;;
26335;SDS011;14047;50.936;4.654;2022-11-15T14:45:52;4.35;;;1.00;;
26335;SDS011;14047;50.936;4.654;2022-11-15T14:48:17;4.68;;;1.25;;
26335;SDS011;14047;50.936;4.654;2022-11-15T14:50:43;3.42;;;1.05;;
26335;SDS011;14047;50.936;4.654;2022-11-15T14:53:13;10.20;;;1.38;;
26335;SDS011;14047;50.936;4.654;2022-11-15T14:55:41;3.22;;;1.10;;
26335;SDS011;14047;50.936;4.654;2022-11-15T14:58:07;3.88;;;1.23;;
26335;SDS011;14047;50.936;4.654;2022-11-15T15:00:34;2.50;;;0.98;;
26335;SDS011;14047;50.936;4.654;2022-11-15T15:03:01;7.13;;;1.67;;
26335;SDS011;14047;50.936;4.654;2022-11-15T15:05:32;2.63;;;1.17;;
26335;SDS011;14047;50.936;4.654;2022-11-15T15:07:58;2.95;;;0.98;;
26335;SDS011;14047;50.936;4.654;2022-11-15T15:10:24;2.47;;;1.00;;
26335;SDS011;14047;50.936;4.654;2022-11-15T15:12:52;2.92;;;1.10;;
26335;SDS011;14047;50.936;4.654;2022-11-15T15:15:21;3.05;;;1.10;;
26335;SDS011;14047;50.936;4.654;2022-11-15T15:17:49;5.95;;;1.38;;
26335;SDS011;14047;50.936;4.654;2022-11-15T15:20:15;4.75;;;1.38;;
26335;SDS011;14047;50.936;4.654;2022-11-15T15:22:41;3.13;;;1.30;;
26335;SDS011;14047;50.936;4.654;2022-11-15T15:25:17;2.17;;;1.10;;
26335;SDS011;14047;50.936;4.654;2022-11-15T15:27:52;3.10;;;1.33;;
26335;SDS011;14047;50.936;4.654;2022-11-15T15:30:18;2.85;;;1.20;;
26335;SDS011;14047;50.936;4.654;2022-11-15T15:32:44;2.83;;;1.20;;
26335;SDS011;14047;50.936;4.654;2022-11-15T15:35:13;4.47;;;1.50;;
26335;SDS011;14047;50.936;4.654;2022-11-15T15:37:39;4.68;;;1.30;;
26335;SDS011;14047;50.936;4.654;2022-11-15T15:40:17;3.05;;;1.33;;
26335;SDS011;14047;50.936;4.654;2022-11-15T15:42:45;3.65;;;1.65;;
26335;SDS011;14047;50.936;4.654;2022-11-15T15:45:11;4.50;;;1.42;;
26335;SDS011;14047;50.936;4.654;2022-11-15T15:47:39;4.38;;;1.50;;
26335;SDS011;14047;50.936;4.654;2022-11-15T15:52:49;3.58;;;1.70;;
26335;SDS011;14047;50.936;4.654;2022-11-15T15:55:15;3.78;;;1.35;;
26335;SDS011;14047;50.936;4.654;2022-11-15T15:57:41;2.90;;;1.50;;
26335;SDS011;14047;50.936;4.654;2022-11-15T16:00:07;5.15;;;1.60;;
26335;SDS011;14047;50.936;4.654;2022-11-15T16:02:33;2.42;;;1.40;;
26335;SDS011;14047;50.936;4.654;2022-11-15T16:04:59;3.42;;;1.25;;
26335;SDS011;14047;50.936;4.654;2022-11-15T16:07:25;7.03;;;1.63;;
26335;SDS011;14047;50.936;4.654;2022-11-15T16:09:53;3.42;;;1.80;;
26335;SDS011;14047;50.936;4.654;2022-11-15T16:12:25;3.90;;;1.60;;
26335;SDS011;14047;50.936;4.654;2022-11-15T16:14:58;2.65;;;1.63;;
26335;SDS011;14047;50.936;4.654;2022-11-15T16:17:25;2.42;;;1.30;;
26335;SDS011;14047;50.936;4.654;2022-11-15T16:19:53;3.97;;;1.45;;
26335;SDS011;14047;50.936;4.654;2022-11-15T16:22:19;5.97;;;2.00;;
26335;SDS011;14047;50.936;4.654;2022-11-15T16:24:45;3.13;;;1.55;;
26335;SDS011;14047;50.936;4.654;2022-11-15T16:27:14;7.30;;;2.00;;
26335;SDS011;14047;50.936;4.654;2022-11-15T16:29:41;4.63;;;1.45;;
26335;SDS011;14047;50.936;4.654;2022-11-15T16:32:07;2.35;;;1.40;;
26335;SDS011;14047;50.936;4.654;2022-11-15T16:34:33;2.95;;;1.50;;
26335;SDS011;14047;50.936;4.654;2022-11-15T16:36:59;2.28;;;1.50;;
26335;SDS011;14047;50.936;4.654;2022-11-15T16:39:24;4.40;;;2.00;;
26335;SDS011;14047;50.936;4.654;2022-11-15T16:41:52;5.88;;;2.17;;
26335;SDS011;14047;50.936;4.654;2022-11-15T16:44:18;3.35;;;1.90;;
26335;SDS011;14047;50.936;4.654;2022-11-15T16:46:44;3.55;;;2.15;;
26335;SDS011;14047;50.936;4.654;2022-11-15T16:49:15;4.28;;;2.42;;
26335;SDS011;14047;50.936;4.654;2022-11-15T16:51:42;2.72;;;1.88;;
26335;SDS011;14047;50.936;4.654;2022-11-15T16:54:10;4.50;;;1.88;;
26335;SDS011;14047;50.936;4.654;2022-11-15T16:56:36;3.05;;;2.10;;
26335;SDS011;14047;50.936;4.654;2022-11-15T16:59:03;5.55;;;2.22;;
26335;SDS011;14047;50.936;4.654;2022-11-15T17:01:30;4.35;;;2.30;;
26335;SDS011;14047;50.936;4.654;2022-11-15T17:04:01;3.10;;;2.03;;
26335;SDS011;14047;50.936;4.654;2022-11-15T17:06:37;3.63;;;2.45;;
26335;SDS011;14047;50.936;4.654;2022-11-15T17:09:04;3.28;;;2.47;;
26335;SDS011;14047;50.936;4.654;2022-11-15T17:11:30;3.38;;;2.38;;
26335;SDS011;14047;50.936;4.654;2022-11-15T17:13:56;3.92;;;2.30;;
26335;SDS011;14047;50.936;4.654;2022-11-15T17:16:23;5.05;;;2.33;;
26335;SDS011;14047;50.936;4.654;2022-11-15T17:18:49;3.17;;;1.90;;